createdAt,value
2023-08-07T00:00:27.661Z,85.41
2023-08-07T00:02:55.291Z,84.65
2023-08-07T00:05:23.237Z,84.79
2023-08-07T00:07:51.027Z,85.25
2023-08-07T00:10:18.699Z,85.69
2023-08-07T00:12:46.581Z,85.08
2023-08-07T00:15:14.303Z,85.08
2023-08-07T00:17:43.242Z,84.71
2023-08-07T00:20:11.393Z,84.74
2023-08-07T00:22:38.962Z,84.38
2023-08-07T00:25:07.210Z,84.30
2023-08-07T00:27:34.842Z,84.15
2023-08-07T00:30:02.435Z,84.58
2023-08-07T00:32:30.039Z,85.21
2023-08-07T00:34:58.996Z,85.26
2023-08-07T00:37:26.611Z,85.39
2023-08-07T00:39:54.165Z,85.51
2023-08-07T00:42:21.693Z,85.57
2023-08-07T00:44:49.295Z,85.58
2023-08-07T00:47:17.036Z,85.02
2023-08-07T00:49:44.710Z,84.99
2023-08-07T00:52:14.156Z,85.06
2023-08-07T00:54:41.820Z,84.74
2023-08-07T00:57:13.729Z,85.50
2023-08-07T00:59:41.988Z,84.71
2023-08-07T01:02:10.975Z,84.53
2023-08-07T01:04:38.570Z,84.52
2023-08-07T01:07:06.788Z,84.85
2023-08-07T01:09:36.027Z,85.19
2023-08-07T01:12:12.851Z,85.35
2023-08-07T01:14:51.526Z,85.66
2023-08-07T01:17:22.511Z,84.93
2023-08-07T01:19:52.209Z,84.36
2023-08-07T01:22:21.789Z,84.49
2023-08-07T01:24:50.966Z,84.01
2023-08-07T01:27:43.974Z,86.23
2023-08-07T01:30:14.801Z,86.12
2023-08-07T01:32:49.622Z,84.75
2023-08-07T01:35:19.590Z,85.09
2023-08-07T01:37:50.130Z,85.43
2023-08-07T01:40:19.196Z,85.04
2023-08-07T01:42:48.383Z,84.59
2023-08-07T01:45:15.999Z,84.82
2023-08-07T01:47:43.615Z,84.81
2023-08-07T01:50:11.311Z,85.82
2023-08-07T01:52:38.913Z,84.98
2023-08-07T01:55:08.558Z,85.20
2023-08-07T01:57:36.127Z,84.63
2023-08-07T02:00:04.860Z,85.12
2023-08-07T02:02:32.504Z,85.61
2023-08-07T02:05:00.182Z,85.86
2023-08-07T02:07:28.835Z,84.02
2023-08-07T02:09:56.394Z,84.96
2023-08-07T02:12:25.735Z,82.99
2023-08-07T02:14:53.460Z,84.31
2023-08-07T02:17:22.896Z,83.27
2023-08-07T02:19:50.526Z,84.38
2023-08-07T02:22:18.201Z,83.78
2023-08-07T02:24:45.758Z,83.49
2023-08-07T02:27:13.310Z,84.52
2023-08-07T02:29:42.276Z,82.88
2023-08-07T02:32:09.914Z,83.28
2023-08-07T02:34:37.556Z,83.85
2023-08-07T02:37:05.619Z,84.10
2023-08-07T02:39:33.822Z,83.39
2023-08-07T02:42:01.700Z,83.00
2023-08-07T02:44:29.285Z,82.41
2023-08-07T02:46:58.496Z,81.76
2023-08-07T02:49:26.320Z,82.46
2023-08-07T02:51:53.997Z,81.47
2023-08-07T02:54:21.700Z,82.51
2023-08-07T02:56:49.987Z,82.74
2023-08-07T02:59:17.636Z,83.61
2023-08-07T03:01:46.059Z,83.73
2023-08-07T03:04:15.041Z,82.50
2023-08-07T03:06:42.613Z,83.56
2023-08-07T03:09:10.254Z,83.06
2023-08-07T03:11:37.826Z,82.47
2023-08-07T03:14:05.470Z,83.23
2023-08-07T03:16:33.085Z,82.57
2023-08-07T03:19:00.675Z,82.86
2023-08-07T03:21:29.583Z,82.54
2023-08-07T03:23:57.147Z,84.01
2023-08-07T03:26:24.727Z,82.95
2023-08-07T03:28:52.349Z,83.23
2023-08-07T03:31:19.952Z,84.37
2023-08-07T03:33:47.583Z,82.58
2023-08-07T03:36:15.233Z,82.01
2023-08-07T03:38:44.213Z,81.85
2023-08-07T03:41:11.831Z,81.91
2023-08-07T03:43:39.452Z,81.80
2023-08-07T03:46:07.040Z,81.59
2023-08-07T03:48:34.682Z,81.15
2023-08-07T03:51:06.144Z,82.04
2023-08-07T03:53:33.757Z,82.87
2023-08-07T03:56:02.683Z,81.53
2023-08-07T03:58:30.318Z,81.99
2023-08-07T04:00:58.162Z,81.79
2023-08-07T04:03:25.785Z,83.66
2023-08-07T04:05:55.306Z,82.47
2023-08-07T04:08:22.969Z,81.73
2023-08-07T04:10:59.860Z,80.79
2023-08-07T04:13:29.747Z,81.20
2023-08-07T04:15:57.633Z,83.12
2023-08-07T04:18:25.399Z,81.81
2023-08-07T04:20:54.572Z,81.63
2023-08-07T04:23:22.496Z,81.52
2023-08-07T04:25:50.869Z,81.05
2023-08-07T04:28:18.857Z,81.50
2023-08-07T04:30:51.871Z,80.39
2023-08-07T04:33:19.618Z,80.86
2023-08-07T04:35:47.731Z,80.41
2023-08-07T04:38:15.528Z,81.07
2023-08-07T04:40:47.391Z,81.12
2023-08-07T04:43:15.408Z,81.09
2023-08-07T04:45:43.438Z,80.70
2023-08-07T04:48:12.834Z,80.48
2023-08-07T04:50:40.612Z,81.28
2023-08-07T04:53:08.433Z,80.65
2023-08-07T04:55:36.040Z,81.79
2023-08-07T04:58:03.857Z,81.82
2023-08-07T05:00:31.543Z,81.24
2023-08-07T05:02:59.472Z,81.53
2023-08-07T05:05:29.516Z,82.22
2023-08-07T05:07:59.285Z,81.98
2023-08-07T05:10:27.043Z,82.59
2023-08-07T05:12:56.475Z,81.38
2023-08-07T05:15:24.669Z,82.21
2023-08-07T05:17:52.813Z,82.69
2023-08-07T05:20:20.543Z,82.96
2023-08-07T05:22:49.796Z,83.86
2023-08-07T05:25:18.109Z,84.25
2023-08-07T05:27:46.412Z,83.75
2023-08-07T05:30:15.066Z,83.96
2023-08-07T05:32:42.952Z,84.12
2023-08-07T05:35:11.527Z,83.59
2023-08-07T05:37:39.130Z,84.57
2023-08-07T05:40:09.323Z,85.30
2023-08-07T05:42:36.901Z,84.53
2023-08-07T05:45:05.078Z,83.65
2023-08-07T05:47:34.694Z,83.59
2023-08-07T05:50:03.000Z,84.33
2023-08-07T05:52:30.584Z,84.73
2023-08-07T05:54:58.139Z,85.63
2023-08-07T05:57:27.081Z,84.87
2023-08-07T05:59:54.703Z,84.03
2023-08-07T06:02:22.320Z,83.97
2023-08-07T06:04:50.011Z,84.15
2023-08-07T06:07:17.860Z,84.81
2023-08-07T06:09:45.466Z,84.24
2023-08-07T06:12:13.317Z,83.02
2023-08-07T06:14:42.241Z,81.96
2023-08-07T06:17:09.792Z,81.85
2023-08-07T06:19:37.406Z,82.15
2023-08-07T06:22:05.359Z,82.51
2023-08-07T06:24:32.964Z,81.62
2023-08-07T06:27:00.723Z,83.06
2023-08-07T06:29:28.326Z,84.81
2023-08-07T06:31:57.622Z,83.94
2023-08-07T06:34:25.509Z,82.40
2023-08-07T06:36:53.081Z,81.55
2023-08-07T06:39:20.681Z,82.79
2023-08-07T06:41:48.201Z,82.49
2023-08-07T06:44:15.828Z,81.42
2023-08-07T06:46:43.399Z,81.22
2023-08-07T06:49:12.311Z,80.76
2023-08-07T06:51:39.865Z,81.00
2023-08-07T06:54:07.447Z,80.83
2023-08-07T06:56:34.997Z,80.85
2023-08-07T06:59:02.625Z,80.84
2023-08-07T07:01:30.274Z,81.38
2023-08-07T07:03:57.959Z,81.31
2023-08-07T07:06:27.626Z,80.16
2023-08-07T07:08:56.010Z,81.23
2023-08-07T07:11:25.417Z,81.16
2023-08-07T07:13:53.229Z,80.84
2023-08-07T07:16:22.564Z,80.27
2023-08-07T07:18:51.887Z,79.93
2023-08-07T07:21:19.614Z,81.26
2023-08-07T07:23:48.514Z,80.06
2023-08-07T07:26:16.417Z,80.58
2023-08-07T07:28:43.990Z,79.52
2023-08-07T07:31:12.733Z,79.22
2023-08-07T07:33:42.364Z,79.51
2023-08-07T07:36:16.816Z,79.67
2023-08-07T07:38:47.245Z,78.01
2023-08-07T07:41:16.554Z,78.24
2023-08-07T07:43:44.430Z,77.98
2023-08-07T07:46:12.375Z,77.63
2023-08-07T07:48:40.038Z,77.32
2023-08-07T07:51:07.669Z,78.73
2023-08-07T07:53:35.317Z,78.30
2023-08-07T07:56:02.892Z,77.95
2023-08-07T07:58:31.801Z,76.61
2023-08-07T08:00:59.389Z,77.73
2023-08-07T08:03:27.304Z,77.82
2023-08-07T08:05:55.344Z,77.13
2023-08-07T08:08:23.082Z,74.61
2023-08-07T08:10:52.215Z,74.15
2023-08-07T08:13:20.269Z,74.60
2023-08-07T08:15:49.320Z,75.32
2023-08-07T08:18:17.022Z,73.71
2023-08-07T08:20:44.834Z,72.30
2023-08-07T08:23:12.505Z,71.15
2023-08-07T08:25:40.207Z,71.21
2023-08-07T08:28:08.021Z,73.01
2023-08-07T08:30:35.678Z,72.18
2023-08-07T08:33:06.610Z,70.46
2023-08-07T08:35:34.537Z,70.86
2023-08-07T08:38:02.527Z,72.01
2023-08-07T08:40:31.004Z,70.45
2023-08-07T08:42:59.152Z,69.87
2023-08-07T08:45:28.285Z,69.31
2023-08-07T08:48:00.067Z,68.75
2023-08-07T08:50:30.508Z,68.92
2023-08-07T08:52:58.912Z,68.75
2023-08-07T08:55:28.639Z,68.75
2023-08-07T08:57:56.554Z,69.33
2023-08-07T09:00:26.938Z,70.22
2023-08-07T09:02:54.773Z,69.48
2023-08-07T09:05:22.906Z,71.61
2023-08-07T09:07:52.279Z,69.70
2023-08-07T09:10:20.477Z,71.14
2023-08-07T09:12:56.273Z,70.38
2023-08-07T09:15:26.869Z,70.98
2023-08-07T09:17:56.913Z,71.14
2023-08-07T09:20:24.787Z,71.21
2023-08-07T09:22:53.895Z,71.49
2023-08-07T09:25:29.627Z,71.47
2023-08-07T09:27:57.895Z,71.12
2023-08-07T09:30:30.113Z,73.34
2023-08-07T09:32:58.809Z,68.80
2023-08-07T09:35:26.773Z,68.55
2023-08-07T09:37:55.824Z,70.14
2023-08-07T09:40:24.497Z,68.45
2023-08-07T09:42:53.960Z,67.08
2023-08-07T09:45:22.610Z,68.16
2023-08-07T09:47:59.759Z,66.46
2023-08-07T09:50:28.173Z,66.40
2023-08-07T09:52:58.982Z,65.32
2023-08-07T09:55:27.349Z,66.27
2023-08-07T09:57:55.413Z,66.63
2023-08-07T10:00:24.128Z,65.98
2023-08-07T10:02:53.175Z,66.16
2023-08-07T10:05:20.986Z,66.91
2023-08-07T10:07:50.394Z,65.94
2023-08-07T10:10:19.535Z,65.38
2023-08-07T10:12:48.990Z,66.94
2023-08-07T10:15:17.509Z,65.87
2023-08-07T10:17:45.537Z,66.08
2023-08-07T10:20:14.114Z,65.17
2023-08-07T10:22:44.797Z,66.60
2023-08-07T10:25:12.523Z,65.14
2023-08-07T10:27:44.829Z,66.80
2023-08-07T10:30:16.178Z,64.10
2023-08-07T10:32:45.477Z,65.44
2023-08-07T10:35:25.615Z,63.44
2023-08-07T10:37:55.311Z,63.21
2023-08-07T10:40:23.698Z,63.46
2023-08-07T10:42:58.726Z,62.63
2023-08-07T10:45:27.538Z,61.64
2023-08-07T10:48:07.566Z,62.55
2023-08-07T10:50:37.242Z,61.91
2023-08-07T10:53:06.047Z,61.80
2023-08-07T10:55:45.518Z,61.53
2023-08-07T10:58:25.566Z,62.97
2023-08-07T11:00:54.423Z,62.51
2023-08-07T11:03:28.113Z,62.91
2023-08-07T11:05:56.245Z,60.83
2023-08-07T11:08:25.467Z,60.38
2023-08-07T11:10:53.595Z,59.50
2023-08-07T11:13:21.367Z,58.43
2023-08-07T11:15:51.554Z,58.05
2023-08-07T11:18:20.390Z,60.83
2023-08-07T11:20:49.090Z,58.03
2023-08-07T11:23:16.809Z,57.50
2023-08-07T11:25:44.578Z,58.92
2023-08-07T11:28:12.384Z,56.94
2023-08-07T11:30:40.134Z,57.49
2023-08-07T11:33:09.723Z,56.28
2023-08-07T11:35:37.562Z,56.29
2023-08-07T11:38:05.458Z,55.27
2023-08-07T11:40:33.052Z,55.04
2023-08-07T11:43:00.744Z,54.98
2023-08-07T11:45:28.851Z,53.85
2023-08-07T11:47:57.792Z,54.25
2023-08-07T11:50:27.070Z,54.20
2023-08-07T11:52:54.832Z,54.74
2023-08-07T11:55:22.582Z,55.72
2023-08-07T11:57:50.325Z,55.57
2023-08-07T12:00:18.736Z,53.78
2023-08-07T12:02:46.745Z,55.62
2023-08-07T12:05:14.523Z,55.12
2023-08-07T12:07:43.877Z,56.21
2023-08-07T12:10:12.965Z,55.19
2023-08-07T12:12:41.128Z,57.69
2023-08-07T12:15:10.484Z,58.11
2023-08-07T12:17:38.727Z,56.62
2023-08-07T12:20:11.445Z,57.00
2023-08-07T12:22:39.332Z,56.93
2023-08-07T12:25:09.235Z,56.79
2023-08-07T12:27:37.007Z,58.24
2023-08-07T12:30:04.904Z,58.78
2023-08-07T12:32:32.617Z,57.28
2023-08-07T12:37:30.962Z,57.92
2023-08-07T12:40:36.380Z,57.50
2023-08-07T12:42:47.514Z,57.46
2023-08-07T12:45:17.469Z,58.47
2023-08-07T12:47:45.370Z,58.25
2023-08-07T12:50:13.736Z,59.75
2023-08-07T12:52:41.430Z,61.60
2023-08-07T12:55:10.793Z,62.56
2023-08-07T12:57:38.431Z,61.64
2023-08-07T13:00:09.316Z,61.98
2023-08-07T13:02:37.000Z,61.63
2023-08-07T13:05:04.952Z,60.89
2023-08-07T13:07:32.731Z,61.98
2023-08-07T13:10:00.378Z,61.18
2023-08-07T13:12:28.002Z,61.91
2023-08-07T13:14:56.039Z,61.87
2023-08-07T13:17:25.140Z,61.43
2023-08-07T13:19:52.765Z,61.28
2023-08-07T13:22:20.514Z,62.31
2023-08-07T13:24:48.798Z,61.98
2023-08-07T13:27:16.520Z,61.84
2023-08-07T13:29:44.262Z,63.17
2023-08-07T13:32:12.074Z,62.52
2023-08-07T13:34:41.518Z,62.03
2023-08-07T13:37:09.186Z,63.99
2023-08-07T13:39:36.956Z,64.67
2023-08-07T13:42:04.891Z,64.38
2023-08-07T13:44:32.516Z,64.42
2023-08-07T13:47:00.156Z,64.73
2023-08-07T13:49:27.998Z,64.76
2023-08-07T13:51:58.490Z,65.42
2023-08-07T13:54:26.417Z,66.08
2023-08-07T13:56:54.102Z,66.34
2023-08-07T13:59:21.815Z,67.81
2023-08-07T14:01:49.484Z,67.40
2023-08-07T14:04:17.480Z,68.96
2023-08-07T14:06:45.564Z,68.67
2023-08-07T14:09:15.096Z,70.58
2023-08-07T14:11:42.848Z,70.28
2023-08-07T14:14:10.553Z,70.00
2023-08-07T14:16:40.124Z,71.50
2023-08-07T14:19:08.085Z,70.38
2023-08-07T14:21:35.709Z,70.30
2023-08-07T14:24:03.272Z,70.47
2023-08-07T14:26:32.161Z,71.68
2023-08-07T14:28:59.703Z,71.89
2023-08-07T14:31:27.304Z,71.27
2023-08-07T14:33:55.327Z,71.00
2023-08-07T14:36:23.136Z,70.93
2023-08-07T14:38:50.761Z,70.28
2023-08-07T14:41:19.392Z,70.34
2023-08-07T14:43:49.017Z,70.94
2023-08-07T14:46:18.670Z,70.32
2023-08-07T14:48:47.792Z,71.01
2023-08-07T14:51:15.746Z,70.93
2023-08-07T14:53:43.363Z,68.90
2023-08-07T14:56:10.943Z,67.88
2023-08-07T14:58:38.674Z,68.55
2023-08-07T15:01:07.609Z,68.21
2023-08-07T15:03:35.239Z,70.85
2023-08-07T15:06:02.899Z,70.74
2023-08-07T15:08:30.508Z,69.23
2023-08-07T15:10:58.110Z,71.16
2023-08-07T15:13:26.170Z,70.44
2023-08-07T15:15:53.848Z,68.56
2023-08-07T15:18:24.986Z,68.33
2023-08-07T15:20:52.568Z,69.33
2023-08-07T15:23:20.341Z,69.32
2023-08-07T15:25:47.937Z,68.86
2023-08-07T15:28:15.515Z,70.25
2023-08-07T15:30:50.090Z,66.86
2023-08-07T15:33:18.114Z,66.41
2023-08-07T15:35:47.150Z,69.29
2023-08-07T15:38:14.926Z,65.66
2023-08-07T15:40:43.293Z,65.75
2023-08-07T15:43:11.979Z,66.74
2023-08-07T15:45:39.801Z,67.75
2023-08-07T15:48:08.189Z,63.74
2023-08-07T15:50:39.316Z,64.85
2023-08-07T15:53:08.303Z,65.96
2023-08-07T15:55:36.980Z,64.75
2023-08-07T15:58:06.099Z,64.86
2023-08-07T16:00:35.840Z,65.82
2023-08-07T16:03:05.685Z,63.73
2023-08-07T16:05:33.757Z,64.67
2023-08-07T16:08:01.707Z,63.78
2023-08-07T16:10:31.018Z,65.64
2023-08-07T16:12:58.682Z,64.34
2023-08-07T16:15:27.051Z,63.31
2023-08-07T16:17:55.081Z,63.65
2023-08-07T16:20:22.971Z,65.57
2023-08-07T16:22:51.868Z,63.60
2023-08-07T16:25:19.593Z,63.00
2023-08-07T16:27:50.258Z,65.98
2023-08-07T16:30:18.328Z,66.00
2023-08-07T16:32:46.086Z,66.44
2023-08-07T16:35:14.050Z,64.55
2023-08-07T16:37:43.032Z,67.08
2023-08-07T16:40:11.389Z,67.15
2023-08-07T16:42:39.007Z,66.20
2023-08-07T16:45:09.009Z,64.96
2023-08-07T16:47:36.637Z,66.52
2023-08-07T16:50:04.743Z,65.91
2023-08-07T16:52:32.338Z,67.22
2023-08-07T16:54:59.894Z,66.25
2023-08-07T16:57:27.528Z,67.56
2023-08-07T16:59:55.132Z,67.71
2023-08-07T17:02:25.562Z,67.74
2023-08-07T17:04:53.234Z,67.92
2023-08-07T17:07:21.159Z,67.00
2023-08-07T17:09:48.919Z,65.90
2023-08-07T17:12:16.550Z,67.56
2023-08-07T17:14:44.129Z,67.29
2023-08-07T17:17:12.138Z,66.64
2023-08-07T17:19:41.108Z,67.84
2023-08-07T17:22:08.703Z,69.01
2023-08-07T17:24:36.323Z,66.39
2023-08-07T17:27:04.093Z,65.81
2023-08-07T17:29:31.759Z,65.48
2023-08-07T17:32:00.342Z,67.89
2023-08-07T17:34:28.046Z,65.90
2023-08-07T17:36:57.242Z,65.95
2023-08-07T17:39:24.953Z,64.65
2023-08-07T17:41:52.522Z,68.38
2023-08-07T17:44:20.118Z,67.77
2023-08-07T17:46:47.756Z,68.62
2023-08-07T17:49:15.461Z,68.16
2023-08-07T17:51:43.094Z,66.03
2023-08-07T17:54:12.053Z,67.05
2023-08-07T17:56:39.818Z,66.26
2023-08-07T17:59:07.478Z,64.34
2023-08-07T18:01:35.120Z,66.45
2023-08-07T18:04:02.855Z,68.41
2023-08-07T18:06:30.923Z,65.31
2023-08-07T18:08:59.428Z,63.96
2023-08-07T18:11:28.602Z,64.39
2023-08-07T18:13:56.372Z,64.10
2023-08-07T18:16:26.286Z,64.37
2023-08-07T18:18:54.695Z,67.04
2023-08-07T18:21:22.266Z,66.04
2023-08-07T18:23:51.104Z,67.87
2023-08-07T18:26:18.628Z,68.02
2023-08-07T18:28:47.555Z,66.71
2023-08-07T18:31:15.294Z,66.07
2023-08-07T18:33:43.039Z,66.24
2023-08-07T18:36:10.662Z,68.10
2023-08-07T18:38:38.250Z,69.44
2023-08-07T18:41:07.392Z,69.24
2023-08-07T18:43:35.041Z,71.08
2023-08-07T18:46:04.167Z,68.08
2023-08-07T18:48:31.830Z,69.93
2023-08-07T18:50:59.519Z,70.96
2023-08-07T18:53:27.159Z,70.88
2023-08-07T18:55:54.738Z,70.04
2023-08-07T18:58:22.290Z,70.66
2023-08-07T19:00:49.887Z,68.67
2023-08-07T19:03:20.898Z,72.14
2023-08-07T19:05:48.879Z,70.92
2023-08-07T19:08:16.750Z,69.38
2023-08-07T19:10:45.915Z,69.85
2023-08-07T19:13:13.671Z,70.14
2023-08-07T19:15:41.212Z,70.02
2023-08-07T19:18:08.815Z,70.55
2023-08-07T19:20:37.746Z,68.64
2023-08-07T19:23:05.892Z,69.82
2023-08-07T19:25:33.653Z,69.86
2023-08-07T19:28:01.192Z,69.54
2023-08-07T19:30:31.663Z,68.57
2023-08-07T19:32:59.633Z,67.90
2023-08-07T19:35:27.287Z,69.49
2023-08-07T19:37:56.184Z,68.87
2023-08-07T19:40:25.858Z,69.52
2023-08-07T19:42:53.813Z,68.96
2023-08-07T19:45:22.103Z,69.30
2023-08-07T19:47:49.830Z,68.99
2023-08-07T19:50:17.819Z,69.49
2023-08-07T19:52:45.421Z,69.34
2023-08-07T19:55:16.333Z,69.50
2023-08-07T19:57:44.060Z,69.80
2023-08-07T20:00:13.188Z,69.87
2023-08-07T20:02:41.850Z,70.52
2023-08-07T20:05:10.280Z,70.59
2023-08-07T20:07:37.863Z,70.94
2023-08-07T20:10:10.719Z,70.98
2023-08-07T20:12:40.927Z,70.86
2023-08-07T20:15:09.514Z,71.28
2023-08-07T20:17:37.245Z,71.53
2023-08-07T20:20:05.864Z,71.86
2023-08-07T20:22:33.462Z,71.50
2023-08-07T20:25:01.131Z,71.47
2023-08-07T20:27:28.726Z,71.53
2023-08-07T20:29:57.665Z,71.81
2023-08-07T20:32:25.429Z,72.38
2023-08-07T20:34:53.041Z,73.74
2023-08-07T20:37:20.670Z,72.51
2023-08-07T20:39:48.264Z,72.63
2023-08-07T20:42:15.911Z,72.41
2023-08-07T20:44:43.567Z,72.27
2023-08-07T20:47:12.502Z,73.26
2023-08-07T20:49:40.094Z,72.92
2023-08-07T20:52:08.306Z,72.07
2023-08-07T20:54:35.945Z,72.02
2023-08-07T20:57:03.540Z,74.60
2023-08-07T20:59:31.188Z,73.20
2023-08-07T21:01:59.096Z,72.78
2023-08-07T21:04:28.495Z,72.32
2023-08-07T21:06:56.122Z,72.76
2023-08-07T21:09:23.788Z,72.82
2023-08-07T21:11:51.519Z,72.48
2023-08-07T21:14:19.286Z,72.25
2023-08-07T21:16:46.914Z,71.95
2023-08-07T21:19:14.547Z,71.84
2023-08-07T21:21:43.541Z,72.82
2023-08-07T21:24:12.997Z,72.79
2023-08-07T21:26:41.602Z,72.00
2023-08-07T21:29:09.413Z,71.78
2023-08-07T21:31:37.395Z,71.85
2023-08-07T21:34:05.006Z,72.05
2023-08-07T21:36:32.600Z,72.34
2023-08-07T21:39:01.700Z,73.34
2023-08-07T21:41:29.315Z,72.79
2023-08-07T21:43:56.883Z,72.22
2023-08-07T21:46:25.165Z,72.33
2023-08-07T21:48:52.974Z,72.55
2023-08-07T21:51:20.604Z,71.95
2023-08-07T21:53:48.253Z,71.96
2023-08-07T21:56:17.782Z,71.90
2023-08-07T21:58:45.344Z,72.68
2023-08-07T22:01:13.015Z,72.81
2023-08-07T22:03:40.668Z,72.46
2023-08-07T22:06:08.441Z,71.96
2023-08-07T22:08:36.079Z,71.49
2023-08-07T22:11:04.117Z,71.44
2023-08-07T22:13:33.152Z,71.40
2023-08-07T22:16:01.054Z,71.59
2023-08-07T22:18:28.732Z,71.45
2023-08-07T22:20:56.317Z,71.74
2023-08-07T22:23:23.980Z,71.80
2023-08-07T22:25:52.847Z,71.92
2023-08-07T22:28:22.032Z,72.02
2023-08-07T22:30:51.419Z,72.33
2023-08-07T22:33:19.108Z,72.07
2023-08-07T22:35:46.788Z,72.17
2023-08-07T22:38:14.391Z,72.12
2023-08-07T22:40:42.058Z,72.49
2023-08-07T22:43:11.690Z,72.50
2023-08-07T22:45:40.675Z,72.48
2023-08-07T22:48:09.879Z,72.51
2023-08-07T22:50:37.475Z,72.63
2023-08-07T22:53:05.468Z,72.58
2023-08-07T22:55:33.261Z,72.73
2023-08-07T22:58:00.965Z,72.54
2023-08-07T23:00:28.623Z,73.00
2023-08-07T23:02:57.040Z,72.99
2023-08-07T23:05:26.091Z,72.85
2023-08-07T23:07:53.697Z,72.96
2023-08-07T23:10:21.338Z,73.29
2023-08-07T23:12:48.882Z,72.84
2023-08-07T23:15:16.452Z,72.82
2023-08-07T23:17:44.095Z,72.67
2023-08-07T23:20:12.462Z,72.72
2023-08-07T23:22:41.446Z,73.08
2023-08-07T23:25:09.935Z,72.98
2023-08-07T23:27:37.690Z,73.07
2023-08-07T23:30:07.198Z,73.04
2023-08-07T23:32:34.856Z,73.19
2023-08-07T23:35:02.469Z,72.88
2023-08-07T23:37:30.146Z,72.91
2023-08-07T23:39:59.063Z,73.15
2023-08-07T23:42:26.729Z,73.20
2023-08-07T23:44:54.404Z,73.24
2023-08-07T23:47:22.163Z,73.24
2023-08-07T23:49:49.775Z,72.94
2023-08-07T23:52:17.402Z,72.95
2023-08-07T23:54:44.979Z,72.90
2023-08-07T23:57:13.980Z,74.89
2023-08-07T23:59:41.630Z,75.93
